Airfield :
LOGIN :

Register | Disclaimer

   EN    FR    IT 

 










Legend :    VFR   Marginal VFR   IFR   Intensive IFR   Very Intensive IFR
Visi :
Ceiling :
>= 8 km
>= 3000ft
5 to 8 km
1000 to 3000 ft
1500m to 5 km
500 to 1000 ft
800 to 1500m
200 to 500 ft
< 800m
< 200 ft
Symbols :   Thunderstorms  Fog  Heavy snow  Heavy precipitations  Wind > 20 kt
SIGMETs :     Misc.  Thunderstorms  Icing  Turbulence  Mountain Waves  Volcanic Ashes






- Airport Elevation : 39 ft
- IATA code : SUF


LICA - Lamezia Terme

CURRENT METAR :
  • 110950Z AUTO 24010KT 210V280 9999 FEW018/// 29/23 Q1015

EXPIRED METARs :
  • 110920Z AUTO 23010KT 200V270 9999 R28/1400D BKN017 29/22 Q1015
  • 110850Z AUTO 23010KT 210V270 9999 R28/1300D BKN018 BKN040 28/22 Q1015
  • 110820Z AUTO 22008KT 190V260 9999 R28/1300D FEW019/// 28/22 Q1015
  • 110750Z AUTO 21007KT 180V250 9999 R28/1100N FEW019/// 28/22 Q1015
  • 110720Z AUTO 22007KT 9999 R28/1000U NCD 27/22 Q1015

TAF TAF LICA
Valid from the 11 at 06:00 until the 12 at 06:00 UTC


110500Z 1106/1206 VRB05KT 9999 SCT025
BECMG 1109/1111 27012KT
BECMG 1118/1120 VRB05KT



MET'MAP, your aeronautical weather chart ! - Copyright ORBIFLY December 2007 - Disclaimer

ORBIFLY MET'MAP TEAM :

Programming & Development : Alexandra Zaïnal
Concept & original design : Baudouin d'Aumeries
Assistance for programming : Marc-Olivier Méhu
Technical & hardware support : Manuel Goepfert

Contact : metmap@orbifly.com




SOURCES & CREDITS :

   NOAA